sensor_id;sensor_type;location;lat;lon;timestamp;P1;durP1;ratioP1;P2;durP2;ratioP2
11418;SDS011;32800;44.876;13.880;2023-04-24T00:00:19;3.63;;;3.33;;
11418;SDS011;32800;44.876;13.880;2023-04-24T00:02:45;3.50;;;3.20;;
11418;SDS011;32800;44.876;13.880;2023-04-24T00:05:13;3.37;;;3.07;;
11418;SDS011;32800;44.876;13.880;2023-04-24T00:07:40;4.70;;;2.90;;
11418;SDS011;32800;44.876;13.880;2023-04-24T00:10:06;4.40;;;2.90;;
11418;SDS011;32800;44.876;13.880;2023-04-24T00:12:32;3.60;;;3.30;;
11418;SDS011;32800;44.876;13.880;2023-04-24T00:14:58;3.40;;;3.10;;
11418;SDS011;32800;44.876;13.880;2023-04-24T00:17:23;3.60;;;3.30;;
11418;SDS011;32800;44.876;13.880;2023-04-24T00:19:49;3.77;;;3.43;;
11418;SDS011;32800;44.876;13.880;2023-04-24T00:22:16;4.40;;;3.37;;
11418;SDS011;32800;44.876;13.880;2023-04-24T00:24:42;3.40;;;3.10;;
11418;SDS011;32800;44.876;13.880;2023-04-24T00:27:08;3.50;;;3.20;;
11418;SDS011;32800;44.876;13.880;2023-04-24T00:29:33;3.40;;;3.10;;
11418;SDS011;32800;44.876;13.880;2023-04-24T00:31:59;3.47;;;3.17;;
11418;SDS011;32800;44.876;13.880;2023-04-24T00:34:25;3.40;;;3.10;;
11418;SDS011;32800;44.876;13.880;2023-04-24T00:36:50;3.10;;;2.87;;
11418;SDS011;32800;44.876;13.880;2023-04-24T00:39:20;3.40;;;3.10;;
11418;SDS011;32800;44.876;13.880;2023-04-24T00:41:46;3.57;;;3.23;;
11418;SDS011;32800;44.876;13.880;2023-04-24T00:44:13;2.93;;;2.73;;
11418;SDS011;32800;44.876;13.880;2023-04-24T00:46:38;3.20;;;2.90;;
11418;SDS011;32800;44.876;13.880;2023-04-24T00:49:04;3.20;;;2.90;;
11418;SDS011;32800;44.876;13.880;2023-04-24T00:51:31;3.40;;;3.13;;
11418;SDS011;32800;44.876;13.880;2023-04-24T00:53:57;3.77;;;3.00;;
11418;SDS011;32800;44.876;13.880;2023-04-24T00:56:23;3.20;;;2.90;;
11418;SDS011;32800;44.876;13.880;2023-04-24T00:58:49;3.33;;;3.03;;
11418;SDS011;32800;44.876;13.880;2023-04-24T01:01:15;3.63;;;3.20;;
11418;SDS011;32800;44.876;13.880;2023-04-24T01:03:40;3.27;;;3.07;;
11418;SDS011;32800;44.876;13.880;2023-04-24T01:06:06;3.10;;;2.80;;
11418;SDS011;32800;44.876;13.880;2023-04-24T01:08:32;2.87;;;2.67;;
11418;SDS011;32800;44.876;13.880;2023-04-24T01:10:58;3.37;;;3.07;;
11418;SDS011;32800;44.876;13.880;2023-04-24T01:13:23;3.30;;;3.00;;
11418;SDS011;32800;44.876;13.880;2023-04-24T01:15:49;3.67;;;3.00;;
11418;SDS011;32800;44.876;13.880;2023-04-24T01:18:15;3.13;;;2.90;;
11418;SDS011;32800;44.876;13.880;2023-04-24T01:20:41;3.40;;;3.03;;
11418;SDS011;32800;44.876;13.880;2023-04-24T01:23:08;3.10;;;2.80;;
11418;SDS011;32800;44.876;13.880;2023-04-24T01:25:34;3.00;;;2.80;;
11418;SDS011;32800;44.876;13.880;2023-04-24T01:28:00;4.00;;;2.80;;
11418;SDS011;32800;44.876;13.880;2023-04-24T01:30:26;3.20;;;3.00;;
11418;SDS011;32800;44.876;13.880;2023-04-24T01:32:53;3.27;;;2.97;;
11418;SDS011;32800;44.876;13.880;2023-04-24T01:35:18;3.10;;;2.80;;
11418;SDS011;32800;44.876;13.880;2023-04-24T01:37:45;3.17;;;2.77;;
11418;SDS011;32800;44.876;13.880;2023-04-24T01:40:10;3.47;;;2.90;;
11418;SDS011;32800;44.876;13.880;2023-04-24T01:42:36;3.27;;;2.97;;
11418;SDS011;32800;44.876;13.880;2023-04-24T01:45:02;3.47;;;3.17;;
11418;SDS011;32800;44.876;13.880;2023-04-24T01:47:30;3.00;;;2.80;;
11418;SDS011;32800;44.876;13.880;2023-04-24T01:49:56;4.37;;;3.03;;
11418;SDS011;32800;44.876;13.880;2023-04-24T01:52:22;2.80;;;2.60;;
11418;SDS011;32800;44.876;13.880;2023-04-24T01:54:48;2.80;;;2.60;;
11418;SDS011;32800;44.876;13.880;2023-04-24T01:57:14;3.23;;;3.00;;
11418;SDS011;32800;44.876;13.880;2023-04-24T01:59:40;3.40;;;3.10;;
11418;SDS011;32800;44.876;13.880;2023-04-24T02:02:05;3.20;;;2.90;;
11418;SDS011;32800;44.876;13.880;2023-04-24T02:04:31;3.23;;;2.93;;
11418;SDS011;32800;44.876;13.880;2023-04-24T02:06:57;3.50;;;3.10;;
11418;SDS011;32800;44.876;13.880;2023-04-24T02:09:22;2.93;;;2.67;;
11418;SDS011;32800;44.876;13.880;2023-04-24T02:11:48;3.10;;;2.90;;
11418;SDS011;32800;44.876;13.880;2023-04-24T02:14:13;3.30;;;3.00;;
11418;SDS011;32800;44.876;13.880;2023-04-24T02:16:39;3.07;;;2.83;;
11418;SDS011;32800;44.876;13.880;2023-04-24T02:19:04;3.13;;;2.93;;
11418;SDS011;32800;44.876;13.880;2023-04-24T02:21:30;3.07;;;2.83;;
11418;SDS011;32800;44.876;13.880;2023-04-24T02:23:56;3.33;;;3.03;;
11418;SDS011;32800;44.876;13.880;2023-04-24T02:26:22;3.57;;;3.27;;
11418;SDS011;32800;44.876;13.880;2023-04-24T02:28:48;3.17;;;2.87;;
11418;SDS011;32800;44.876;13.880;2023-04-24T02:31:13;3.37;;;2.57;;
11418;SDS011;32800;44.876;13.880;2023-04-24T02:33:39;2.90;;;2.70;;
11418;SDS011;32800;44.876;13.880;2023-04-24T02:36:05;3.20;;;2.90;;
11418;SDS011;32800;44.876;13.880;2023-04-24T02:38:30;2.93;;;2.70;;
11418;SDS011;32800;44.876;13.880;2023-04-24T02:40:56;3.70;;;2.90;;
11418;SDS011;32800;44.876;13.880;2023-04-24T02:43:21;3.37;;;2.90;;
11418;SDS011;32800;44.876;13.880;2023-04-24T02:45:47;2.60;;;2.40;;
11418;SDS011;32800;44.876;13.880;2023-04-24T02:48:12;3.43;;;3.13;;
11418;SDS011;32800;44.876;13.880;2023-04-24T02:50:38;6.10;;;2.97;;
11418;SDS011;32800;44.876;13.880;2023-04-24T02:53:03;2.70;;;2.50;;
11418;SDS011;32800;44.876;13.880;2023-04-24T02:55:29;2.70;;;2.50;;
11418;SDS011;32800;44.876;13.880;2023-04-24T02:57:55;3.57;;;3.07;;
11418;SDS011;32800;44.876;13.880;2023-04-24T03:00:21;3.00;;;2.70;;
11418;SDS011;32800;44.876;13.880;2023-04-24T03:02:46;2.70;;;2.50;;
11418;SDS011;32800;44.876;13.880;2023-04-24T03:05:12;3.77;;;2.90;;
11418;SDS011;32800;44.876;13.880;2023-04-24T03:07:37;2.80;;;2.60;;
11418;SDS011;32800;44.876;13.880;2023-04-24T03:10:04;3.23;;;2.93;;
11418;SDS011;32800;44.876;13.880;2023-04-24T03:12:30;3.70;;;3.00;;
11418;SDS011;32800;44.876;13.880;2023-04-24T03:14:56;3.13;;;2.83;;
11418;SDS011;32800;44.876;13.880;2023-04-24T03:17:22;3.03;;;2.80;;
11418;SDS011;32800;44.876;13.880;2023-04-24T03:19:47;4.37;;;3.20;;
11418;SDS011;32800;44.876;13.880;2023-04-24T03:22:13;3.30;;;2.77;;
11418;SDS011;32800;44.876;13.880;2023-04-24T03:24:38;4.47;;;2.60;;
11418;SDS011;32800;44.876;13.880;2023-04-24T03:27:05;2.97;;;2.77;;
11418;SDS011;32800;44.876;13.880;2023-04-24T03:29:30;2.93;;;2.73;;
11418;SDS011;32800;44.876;13.880;2023-04-24T03:31:56;6.43;;;2.97;;
11418;SDS011;32800;44.876;13.880;2023-04-24T03:34:21;3.87;;;2.83;;
11418;SDS011;32800;44.876;13.880;2023-04-24T03:36:47;2.93;;;2.53;;
11418;SDS011;32800;44.876;13.880;2023-04-24T03:39:12;2.73;;;2.53;;
11418;SDS011;32800;44.876;13.880;2023-04-24T03:41:38;5.03;;;2.80;;
11418;SDS011;32800;44.876;13.880;2023-04-24T03:44:04;3.17;;;2.87;;
11418;SDS011;32800;44.876;13.880;2023-04-24T03:46:29;4.00;;;2.77;;
11418;SDS011;32800;44.876;13.880;2023-04-24T03:48:55;3.17;;;2.87;;
11418;SDS011;32800;44.876;13.880;2023-04-24T03:51:20;2.80;;;2.60;;
11418;SDS011;32800;44.876;13.880;2023-04-24T03:53:46;2.83;;;2.63;;
11418;SDS011;32800;44.876;13.880;2023-04-24T03:56:12;3.07;;;2.87;;
11418;SDS011;32800;44.876;13.880;2023-04-24T03:58:38;4.53;;;3.00;;
11418;SDS011;32800;44.876;13.880;2023-04-24T04:01:03;3.03;;;2.80;;
11418;SDS011;32800;44.876;13.880;2023-04-24T04:03:29;2.60;;;2.40;;
11418;SDS011;32800;44.876;13.880;2023-04-24T04:05:54;2.80;;;2.60;;
11418;SDS011;32800;44.876;13.880;2023-04-24T04:08:20;3.17;;;2.87;;
11418;SDS011;32800;44.876;13.880;2023-04-24T04:10:45;3.90;;;2.83;;
11418;SDS011;32800;44.876;13.880;2023-04-24T04:13:11;3.63;;;3.33;;
11418;SDS011;32800;44.876;13.880;2023-04-24T04:15:36;3.33;;;3.03;;
11418;SDS011;32800;44.876;13.880;2023-04-24T04:18:02;3.00;;;2.70;;
11418;SDS011;32800;44.876;13.880;2023-04-24T04:20:28;3.13;;;2.80;;
11418;SDS011;32800;44.876;13.880;2023-04-24T04:22:53;3.00;;;2.80;;
11418;SDS011;32800;44.876;13.880;2023-04-24T04:25:19;3.17;;;2.87;;
11418;SDS011;32800;44.876;13.880;2023-04-24T04:27:45;3.07;;;2.80;;
11418;SDS011;32800;44.876;13.880;2023-04-24T04:30:12;3.00;;;2.70;;
11418;SDS011;32800;44.876;13.880;2023-04-24T04:32:38;2.80;;;2.50;;
11418;SDS011;32800;44.876;13.880;2023-04-24T04:35:04;2.73;;;2.53;;
11418;SDS011;32800;44.876;13.880;2023-04-24T04:37:30;3.10;;;2.70;;
11418;SDS011;32800;44.876;13.880;2023-04-24T04:39:56;3.00;;;2.80;;
11418;SDS011;32800;44.876;13.880;2023-04-24T04:42:26;2.63;;;2.43;;
11418;SDS011;32800;44.876;13.880;2023-04-24T04:44:52;3.60;;;2.83;;
11418;SDS011;32800;44.876;13.880;2023-04-24T04:47:18;4.63;;;2.40;;
11418;SDS011;32800;44.876;13.880;2023-04-24T04:49:47;2.80;;;2.30;;
11418;SDS011;32800;44.876;13.880;2023-04-24T04:52:13;2.67;;;2.47;;
11418;SDS011;32800;44.876;13.880;2023-04-24T04:54:38;2.80;;;2.60;;
11418;SDS011;32800;44.876;13.880;2023-04-24T04:57:04;2.83;;;2.40;;
11418;SDS011;32800;44.876;13.880;2023-04-24T04:59:31;2.87;;;2.67;;
11418;SDS011;32800;44.876;13.880;2023-04-24T05:01:56;3.17;;;2.80;;
11418;SDS011;32800;44.876;13.880;2023-04-24T05:04:22;2.60;;;2.40;;
11418;SDS011;32800;44.876;13.880;2023-04-24T05:06:47;3.43;;;2.70;;
11418;SDS011;32800;44.876;13.880;2023-04-24T05:09:13;2.83;;;2.63;;
11418;SDS011;32800;44.876;13.880;2023-04-24T05:11:38;2.70;;;2.50;;
11418;SDS011;32800;44.876;13.880;2023-04-24T05:14:04;7.20;;;3.00;;
11418;SDS011;32800;44.876;13.880;2023-04-24T05:16:30;6.53;;;3.17;;
11418;SDS011;32800;44.876;13.880;2023-04-24T05:18:56;4.93;;;2.87;;
11418;SDS011;32800;44.876;13.880;2023-04-24T05:21:21;12.80;;;3.10;;
11418;SDS011;32800;44.876;13.880;2023-04-24T05:23:47;10.67;;;3.20;;
11418;SDS011;32800;44.876;13.880;2023-04-24T05:26:13;5.90;;;3.00;;
11418;SDS011;32800;44.876;13.880;2023-04-24T05:28:38;5.40;;;2.97;;
11418;SDS011;32800;44.876;13.880;2023-04-24T05:31:04;3.73;;;3.10;;
11418;SDS011;32800;44.876;13.880;2023-04-24T05:33:29;4.87;;;3.07;;
11418;SDS011;32800;44.876;13.880;2023-04-24T05:35:55;7.33;;;3.30;;
11418;SDS011;32800;44.876;13.880;2023-04-24T05:38:21;4.50;;;3.50;;
11418;SDS011;32800;44.876;13.880;2023-04-24T05:40:46;6.50;;;3.50;;
11418;SDS011;32800;44.876;13.880;2023-04-24T05:43:12;3.70;;;3.00;;
11418;SDS011;32800;44.876;13.880;2023-04-24T05:45:38;7.70;;;3.73;;
11418;SDS011;32800;44.876;13.880;2023-04-24T05:48:04;6.70;;;3.73;;
11418;SDS011;32800;44.876;13.880;2023-04-24T05:50:30;3.37;;;3.07;;
11418;SDS011;32800;44.876;13.880;2023-04-24T05:52:56;3.77;;;3.37;;
11418;SDS011;32800;44.876;13.880;2023-04-24T05:55:25;3.63;;;2.90;;
11418;SDS011;32800;44.876;13.880;2023-04-24T05:57:51;4.53;;;3.40;;
11418;SDS011;32800;44.876;13.880;2023-04-24T06:00:16;4.47;;;3.37;;
11418;SDS011;32800;44.876;13.880;2023-04-24T06:02:44;5.37;;;3.70;;
11418;SDS011;32800;44.876;13.880;2023-04-24T06:05:10;5.37;;;3.83;;
11418;SDS011;32800;44.876;13.880;2023-04-24T06:07:36;5.20;;;3.50;;
11418;SDS011;32800;44.876;13.880;2023-04-24T06:10:01;7.07;;;3.27;;
11418;SDS011;32800;44.876;13.880;2023-04-24T06:12:27;4.67;;;3.23;;
11418;SDS011;32800;44.876;13.880;2023-04-24T06:14:53;3.97;;;3.50;;
11418;SDS011;32800;44.876;13.880;2023-04-24T06:17:20;3.37;;;3.07;;
11418;SDS011;32800;44.876;13.880;2023-04-24T06:19:46;3.70;;;3.33;;
11418;SDS011;32800;44.876;13.880;2023-04-24T06:22:12;5.17;;;3.40;;
11418;SDS011;32800;44.876;13.880;2023-04-24T06:24:37;5.70;;;3.20;;
11418;SDS011;32800;44.876;13.880;2023-04-24T06:27:03;4.30;;;2.90;;
11418;SDS011;32800;44.876;13.880;2023-04-24T06:29:28;4.03;;;3.13;;
11418;SDS011;32800;44.876;13.880;2023-04-24T06:31:54;3.53;;;3.00;;
11418;SDS011;32800;44.876;13.880;2023-04-24T06:34:20;4.63;;;3.37;;
11418;SDS011;32800;44.876;13.880;2023-04-24T06:36:46;4.93;;;3.10;;
11418;SDS011;32800;44.876;13.880;2023-04-24T06:39:12;3.63;;;3.20;;
11418;SDS011;32800;44.876;13.880;2023-04-24T06:41:37;4.43;;;3.27;;
11418;SDS011;32800;44.876;13.880;2023-04-24T06:44:03;4.50;;;3.77;;
11418;SDS011;32800;44.876;13.880;2023-04-24T06:46:28;5.47;;;3.27;;
11418;SDS011;32800;44.876;13.880;2023-04-24T06:48:54;4.03;;;3.57;;
11418;SDS011;32800;44.876;13.880;2023-04-24T06:51:23;5.20;;;3.23;;
11418;SDS011;32800;44.876;13.880;2023-04-24T06:53:49;3.77;;;3.30;;
11418;SDS011;32800;44.876;13.880;2023-04-24T06:56:15;6.40;;;3.33;;
11418;SDS011;32800;44.876;13.880;2023-04-24T06:58:40;4.77;;;3.40;;
11418;SDS011;32800;44.876;13.880;2023-04-24T07:01:06;5.17;;;3.30;;
11418;SDS011;32800;44.876;13.880;2023-04-24T07:03:32;4.80;;;3.90;;
11418;SDS011;32800;44.876;13.880;2023-04-24T07:05:57;5.30;;;3.70;;
11418;SDS011;32800;44.876;13.880;2023-04-24T07:08:23;6.20;;;3.77;;
11418;SDS011;32800;44.876;13.880;2023-04-24T07:10:49;6.37;;;3.70;;
11418;SDS011;32800;44.876;13.880;2023-04-24T07:13:15;5.03;;;3.73;;
11418;SDS011;32800;44.876;13.880;2023-04-24T07:15:41;3.50;;;3.20;;
11418;SDS011;32800;44.876;13.880;2023-04-24T07:18:07;6.30;;;4.00;;
11418;SDS011;32800;44.876;13.880;2023-04-24T07:20:32;4.97;;;3.70;;
11418;SDS011;32800;44.876;13.880;2023-04-24T07:22:58;4.90;;;3.53;;
11418;SDS011;32800;44.876;13.880;2023-04-24T07:25:23;4.83;;;3.77;;
11418;SDS011;32800;44.876;13.880;2023-04-24T07:27:49;4.03;;;3.60;;
11418;SDS011;32800;44.876;13.880;2023-04-24T07:30:15;5.43;;;3.87;;
11418;SDS011;32800;44.876;13.880;2023-04-24T07:32:40;4.93;;;3.90;;
11418;SDS011;32800;44.876;13.880;2023-04-24T07:35:06;7.27;;;3.90;;
11418;SDS011;32800;44.876;13.880;2023-04-24T07:37:32;5.73;;;3.70;;
11418;SDS011;32800;44.876;13.880;2023-04-24T07:39:57;5.83;;;3.80;;
11418;SDS011;32800;44.876;13.880;2023-04-24T07:42:23;6.07;;;4.23;;
11418;SDS011;32800;44.876;13.880;2023-04-24T07:44:48;7.30;;;3.70;;
11418;SDS011;32800;44.876;13.880;2023-04-24T07:47:14;5.60;;;4.17;;
11418;SDS011;32800;44.876;13.880;2023-04-24T07:49:41;5.37;;;3.87;;
11418;SDS011;32800;44.876;13.880;2023-04-24T07:52:07;6.77;;;4.33;;
11418;SDS011;32800;44.876;13.880;2023-04-24T07:54:33;5.67;;;4.13;;
11418;SDS011;32800;44.876;13.880;2023-04-24T07:56:58;4.70;;;4.20;;
11418;SDS011;32800;44.876;13.880;2023-04-24T07:59:24;4.57;;;3.80;;
11418;SDS011;32800;44.876;13.880;2023-04-24T08:01:49;5.67;;;4.17;;
11418;SDS011;32800;44.876;13.880;2023-04-24T08:04:15;6.53;;;4.37;;
11418;SDS011;32800;44.876;13.880;2023-04-24T08:06:41;5.57;;;3.73;;
11418;SDS011;32800;44.876;13.880;2023-04-24T08:09:06;4.43;;;3.67;;
11418;SDS011;32800;44.876;13.880;2023-04-24T08:11:32;5.57;;;3.90;;
11418;SDS011;32800;44.876;13.880;2023-04-24T08:13:57;4.93;;;3.90;;
11418;SDS011;32800;44.876;13.880;2023-04-24T08:16:23;4.67;;;3.80;;
11418;SDS011;32800;44.876;13.880;2023-04-24T08:18:49;5.83;;;3.70;;
11418;SDS011;32800;44.876;13.880;2023-04-24T08:21:15;5.57;;;3.70;;
11418;SDS011;32800;44.876;13.880;2023-04-24T08:23:43;5.60;;;3.67;;
11418;SDS011;32800;44.876;13.880;2023-04-24T08:26:10;5.57;;;3.67;;
11418;SDS011;32800;44.876;13.880;2023-04-24T08:28:36;5.57;;;4.33;;
11418;SDS011;32800;44.876;13.880;2023-04-24T08:31:02;3.87;;;3.50;;
11418;SDS011;32800;44.876;13.880;2023-04-24T08:33:28;6.13;;;3.93;;
11418;SDS011;32800;44.876;13.880;2023-04-24T08:35:59;7.33;;;4.00;;
11418;SDS011;32800;44.876;13.880;2023-04-24T08:38:25;4.73;;;3.40;;
11418;SDS011;32800;44.876;13.880;2023-04-24T08:40:51;7.83;;;4.40;;
11418;SDS011;32800;44.876;13.880;2023-04-24T08:43:17;6.47;;;4.20;;
11418;SDS011;32800;44.876;13.880;2023-04-24T08:45:43;6.57;;;4.40;;
11418;SDS011;32800;44.876;13.880;2023-04-24T08:48:08;5.90;;;3.67;;
11418;SDS011;32800;44.876;13.880;2023-04-24T08:50:34;5.20;;;3.57;;
11418;SDS011;32800;44.876;13.880;2023-04-24T08:53:01;6.07;;;3.93;;
11418;SDS011;32800;44.876;13.880;2023-04-24T08:55:27;6.60;;;3.90;;
11418;SDS011;32800;44.876;13.880;2023-04-24T08:57:55;5.73;;;4.10;;
11418;SDS011;32800;44.876;13.880;2023-04-24T09:00:21;5.40;;;3.93;;
11418;SDS011;32800;44.876;13.880;2023-04-24T09:02:48;6.13;;;3.73;;
11418;SDS011;32800;44.876;13.880;2023-04-24T09:05:16;5.10;;;3.70;;
11418;SDS011;32800;44.876;13.880;2023-04-24T09:07:44;5.60;;;3.93;;
11418;SDS011;32800;44.876;13.880;2023-04-24T09:10:11;4.70;;;3.50;;
11418;SDS011;32800;44.876;13.880;2023-04-24T09:12:37;7.23;;;4.10;;
11418;SDS011;32800;44.876;13.880;2023-04-24T09:15:02;5.60;;;3.80;;
11418;SDS011;32800;44.876;13.880;2023-04-24T09:17:31;6.57;;;4.40;;
11418;SDS011;32800;44.876;13.880;2023-04-24T09:19:57;6.33;;;3.70;;
11418;SDS011;32800;44.876;13.880;2023-04-24T09:22:23;5.23;;;3.43;;
11418;SDS011;32800;44.876;13.880;2023-04-24T09:24:48;5.00;;;3.50;;
11418;SDS011;32800;44.876;13.880;2023-04-24T09:27:25;7.00;;;4.13;;
11418;SDS011;32800;44.876;13.880;2023-04-24T09:29:56;3.83;;;3.43;;
11418;SDS011;32800;44.876;13.880;2023-04-24T09:32:22;5.17;;;3.30;;
11418;SDS011;32800;44.876;13.880;2023-04-24T09:35:04;4.10;;;3.50;;
11418;SDS011;32800;44.876;13.880;2023-04-24T09:37:41;6.60;;;3.80;;
11418;SDS011;32800;44.876;13.880;2023-04-24T09:40:16;6.30;;;3.80;;
11418;SDS011;32800;44.876;13.880;2023-04-24T09:42:52;3.70;;;3.40;;
11418;SDS011;32800;44.876;13.880;2023-04-24T09:45:18;3.93;;;3.17;;
11418;SDS011;32800;44.876;13.880;2023-04-24T09:47:45;4.20;;;3.37;;
11418;SDS011;32800;44.876;13.880;2023-04-24T09:52:44;7.90;;;3.63;;
11418;SDS011;32800;44.876;13.880;2023-04-24T09:55:15;3.53;;;3.17;;
11418;SDS011;32800;44.876;13.880;2023-04-24T09:57:49;5.30;;;3.27;;
11418;SDS011;32800;44.876;13.880;2023-04-24T10:00:28;7.63;;;3.67;;
11418;SDS011;32800;44.876;13.880;2023-04-24T10:03:03;4.40;;;3.13;;
11418;SDS011;32800;44.876;13.880;2023-04-24T10:05:30;5.27;;;3.57;;
11418;SDS011;32800;44.876;13.880;2023-04-24T10:08:02;4.93;;;3.23;;
11418;SDS011;32800;44.876;13.880;2023-04-24T10:10:30;4.07;;;3.43;;
11418;SDS011;32800;44.876;13.880;2023-04-24T10:12:56;5.40;;;4.10;;
11418;SDS011;32800;44.876;13.880;2023-04-24T10:15:22;5.97;;;3.63;;
11418;SDS011;32800;44.876;13.880;2023-04-24T10:17:48;5.63;;;3.83;;
11418;SDS011;32800;44.876;13.880;2023-04-24T10:20:18;5.40;;;3.50;;
11418;SDS011;32800;44.876;13.880;2023-04-24T10:22:48;3.90;;;3.40;;
11418;SDS011;32800;44.876;13.880;2023-04-24T10:25:20;5.63;;;3.10;;
11418;SDS011;32800;44.876;13.880;2023-04-24T10:27:48;5.70;;;4.00;;
11418;SDS011;32800;44.876;13.880;2023-04-24T10:30:14;6.60;;;3.60;;
11418;SDS011;32800;44.876;13.880;2023-04-24T10:32:40;7.20;;;4.10;;
11418;SDS011;32800;44.876;13.880;2023-04-24T10:35:06;8.90;;;4.10;;
11418;SDS011;32800;44.876;13.880;2023-04-24T10:37:43;5.53;;;3.63;;
11418;SDS011;32800;44.876;13.880;2023-04-24T10:40:18;4.47;;;3.77;;
11418;SDS011;32800;44.876;13.880;2023-04-24T10:42:48;6.10;;;3.87;;
11418;SDS011;32800;44.876;13.880;2023-04-24T10:45:17;4.73;;;3.80;;
11418;SDS011;32800;44.876;13.880;2023-04-24T10:47:53;4.93;;;3.77;;
11418;SDS011;32800;44.876;13.880;2023-04-24T10:50:23;7.60;;;3.87;;
11418;SDS011;32800;44.876;13.880;2023-04-24T10:52:49;7.23;;;4.23;;
11418;SDS011;32800;44.876;13.880;2023-04-24T10:55:16;4.67;;;3.70;;
11418;SDS011;32800;44.876;13.880;2023-04-24T10:58:03;5.53;;;4.17;;
11418;SDS011;32800;44.876;13.880;2023-04-24T11:00:29;5.97;;;4.00;;
11418;SDS011;32800;44.876;13.880;2023-04-24T11:02:55;4.90;;;3.70;;
11418;SDS011;32800;44.876;13.880;2023-04-24T11:05:22;5.47;;;3.60;;
11418;SDS011;32800;44.876;13.880;2023-04-24T11:11:00;7.00;;;4.37;;
11418;SDS011;32800;44.876;13.880;2023-04-24T11:13:27;6.57;;;3.93;;
11418;SDS011;32800;44.876;13.880;2023-04-24T11:16:14;6.83;;;3.80;;
11418;SDS011;32800;44.876;13.880;2023-04-24T11:18:41;5.47;;;3.70;;
11418;SDS011;32800;44.876;13.880;2023-04-24T11:21:16;5.67;;;3.73;;
11418;SDS011;32800;44.876;13.880;2023-04-24T11:23:42;5.30;;;3.47;;
11418;SDS011;32800;44.876;13.880;2023-04-24T11:26:11;4.50;;;3.70;;
11418;SDS011;32800;44.876;13.880;2023-04-24T11:29:06;4.97;;;3.53;;
11418;SDS011;32800;44.876;13.880;2023-04-24T11:34:14;7.07;;;4.43;;
11418;SDS011;32800;44.876;13.880;2023-04-24T11:36:39;9.20;;;5.60;;
11418;SDS011;32800;44.876;13.880;2023-04-24T11:39:07;15.93;;;6.20;;
11418;SDS011;32800;44.876;13.880;2023-04-24T11:41:33;10.97;;;7.00;;
11418;SDS011;32800;44.876;13.880;2023-04-24T11:44:00;10.50;;;6.10;;
11418;SDS011;32800;44.876;13.880;2023-04-24T11:46:27;13.17;;;8.03;;
11418;SDS011;32800;44.876;13.880;2023-04-24T11:48:55;11.63;;;7.33;;
11418;SDS011;32800;44.876;13.880;2023-04-24T11:51:22;15.83;;;9.17;;
11418;SDS011;32800;44.876;13.880;2023-04-24T11:53:49;14.10;;;9.03;;
11418;SDS011;32800;44.876;13.880;2023-04-24T11:56:17;18.10;;;9.50;;
11418;SDS011;32800;44.876;13.880;2023-04-24T11:58:44;18.40;;;10.10;;
11418;SDS011;32800;44.876;13.880;2023-04-24T12:01:10;16.77;;;9.10;;
11418;SDS011;32800;44.876;13.880;2023-04-24T12:03:36;16.37;;;9.23;;
11418;SDS011;32800;44.876;13.880;2023-04-24T12:06:08;14.80;;;8.30;;
11418;SDS011;32800;44.876;13.880;2023-04-24T12:08:35;18.23;;;8.00;;
11418;SDS011;32800;44.876;13.880;2023-04-24T12:11:01;12.53;;;7.10;;
11418;SDS011;32800;44.876;13.880;2023-04-24T12:13:27;14.07;;;6.60;;
11418;SDS011;32800;44.876;13.880;2023-04-24T12:15:53;9.83;;;5.40;;
11418;SDS011;32800;44.876;13.880;2023-04-24T12:18:18;11.83;;;5.57;;
11418;SDS011;32800;44.876;13.880;2023-04-24T12:20:47;9.67;;;5.07;;
11418;SDS011;32800;44.876;13.880;2023-04-24T12:23:13;12.70;;;4.77;;
11418;SDS011;32800;44.876;13.880;2023-04-24T12:25:39;10.10;;;4.60;;
11418;SDS011;32800;44.876;13.880;2023-04-24T12:30:32;10.23;;;4.23;;
11418;SDS011;32800;44.876;13.880;2023-04-24T12:33:03;7.37;;;3.77;;
11418;SDS011;32800;44.876;13.880;2023-04-24T12:35:30;7.83;;;4.37;;
11418;SDS011;32800;44.876;13.880;2023-04-24T12:38:07;9.03;;;3.80;;
11418;SDS011;32800;44.876;13.880;2023-04-24T12:40:43;7.93;;;3.60;;
11418;SDS011;32800;44.876;13.880;2023-04-24T12:43:15;8.97;;;3.27;;
11418;SDS011;32800;44.876;13.880;2023-04-24T12:45:42;6.83;;;3.20;;
11418;SDS011;32800;44.876;13.880;2023-04-24T12:48:09;6.43;;;3.20;;
11418;SDS011;32800;44.876;13.880;2023-04-24T12:50:35;7.10;;;2.83;;
11418;SDS011;32800;44.876;13.880;2023-04-24T12:53:01;5.67;;;2.63;;
11418;SDS011;32800;44.876;13.880;2023-04-24T12:55:27;7.23;;;2.87;;
11418;SDS011;32800;44.876;13.880;2023-04-24T12:57:52;3.90;;;2.00;;
11418;SDS011;32800;44.876;13.880;2023-04-24T13:00:20;4.23;;;2.43;;
11418;SDS011;32800;44.876;13.880;2023-04-24T13:02:46;5.27;;;2.43;;
11418;SDS011;32800;44.876;13.880;2023-04-24T13:05:11;6.53;;;2.77;;
11418;SDS011;32800;44.876;13.880;2023-04-24T13:07:38;6.50;;;2.50;;
11418;SDS011;32800;44.876;13.880;2023-04-24T13:10:04;8.93;;;2.70;;
11418;SDS011;32800;44.876;13.880;2023-04-24T13:12:30;3.83;;;2.40;;
11418;SDS011;32800;44.876;13.880;2023-04-24T13:14:57;7.77;;;2.60;;
11418;SDS011;32800;44.876;13.880;2023-04-24T13:17:23;5.83;;;2.67;;
11418;SDS011;32800;44.876;13.880;2023-04-24T13:19:49;6.93;;;2.63;;
11418;SDS011;32800;44.876;13.880;2023-04-24T13:22:16;6.10;;;2.83;;
11418;SDS011;32800;44.876;13.880;2023-04-24T13:24:43;5.57;;;2.30;;
11418;SDS011;32800;44.876;13.880;2023-04-24T13:27:09;4.13;;;2.43;;
11418;SDS011;32800;44.876;13.880;2023-04-24T13:29:35;7.40;;;2.77;;
11418;SDS011;32800;44.876;13.880;2023-04-24T13:32:01;3.77;;;2.27;;
11418;SDS011;32800;44.876;13.880;2023-04-24T13:34:27;4.47;;;2.47;;
11418;SDS011;32800;44.876;13.880;2023-04-24T13:36:55;5.53;;;2.50;;
11418;SDS011;32800;44.876;13.880;2023-04-24T13:39:22;5.00;;;2.53;;
11418;SDS011;32800;44.876;13.880;2023-04-24T13:41:48;5.30;;;2.53;;
11418;SDS011;32800;44.876;13.880;2023-04-24T13:44:15;5.60;;;2.50;;
11418;SDS011;32800;44.876;13.880;2023-04-24T13:46:41;6.47;;;2.73;;
11418;SDS011;32800;44.876;13.880;2023-04-24T13:49:09;6.20;;;2.70;;
11418;SDS011;32800;44.876;13.880;2023-04-24T13:51:35;6.83;;;2.50;;
11418;SDS011;32800;44.876;13.880;2023-04-24T13:54:01;5.83;;;2.50;;
11418;SDS011;32800;44.876;13.880;2023-04-24T13:56:26;5.13;;;2.40;;
11418;SDS011;32800;44.876;13.880;2023-04-24T13:58:52;6.63;;;2.60;;
11418;SDS011;32800;44.876;13.880;2023-04-24T14:01:19;5.70;;;2.63;;
11418;SDS011;32800;44.876;13.880;2023-04-24T14:03:45;10.00;;;2.90;;
11418;SDS011;32800;44.876;13.880;2023-04-24T14:06:11;9.40;;;3.30;;
11418;SDS011;32800;44.876;13.880;2023-04-24T14:08:36;7.23;;;2.30;;
11418;SDS011;32800;44.876;13.880;2023-04-24T14:11:02;5.60;;;2.57;;
11418;SDS011;32800;44.876;13.880;2023-04-24T14:13:27;7.47;;;2.60;;
11418;SDS011;32800;44.876;13.880;2023-04-24T14:15:53;5.87;;;2.30;;
11418;SDS011;32800;44.876;13.880;2023-04-24T14:18:19;4.40;;;2.53;;
11418;SDS011;32800;44.876;13.880;2023-04-24T14:20:45;4.33;;;2.60;;
11418;SDS011;32800;44.876;13.880;2023-04-24T14:23:10;4.03;;;2.27;;
11418;SDS011;32800;44.876;13.880;2023-04-24T14:25:36;4.77;;;2.33;;
11418;SDS011;32800;44.876;13.880;2023-04-24T14:28:01;3.77;;;2.07;;
11418;SDS011;32800;44.876;13.880;2023-04-24T14:30:27;5.17;;;2.27;;
11418;SDS011;32800;44.876;13.880;2023-04-24T14:32:53;5.30;;;2.47;;
11418;SDS011;32800;44.876;13.880;2023-04-24T14:35:18;2.67;;;2.00;;
11418;SDS011;32800;44.876;13.880;2023-04-24T14:37:44;4.63;;;2.30;;
11418;SDS011;32800;44.876;13.880;2023-04-24T14:40:09;3.00;;;2.03;;